Time;durP1;ratioP1;P1;durP2;ratioP2;P2;SDS_P1;SDS_P2;PMS_P1;PMS_P2;Temp;Humidity;BMP_temperature;BMP_pressure;BME280_temperature;BME280_humidity;BME280_pressure;Samples;Min_cycle;Max_cycle;Signal;HPM_P1;HPM_P2
2022/09/25 00:02:04;;;;;;;5.50;3.87;;;8.10;99.90;;;;;;5056128;28;20209;-77
2022/09/25 00:04:31;;;;;;;6.00;4.53;;;8.00;99.90;;;;;;5056320;28;20205;-77
2022/09/25 00:06:58;;;;;;;6.47;4.67;;;7.90;99.90;;;;;;5055219;28;20327;-78
2022/09/25 00:09:26;;;;;;;6.20;5.03;;;7.90;99.90;;;;;;5055992;28;20213;-77
2022/09/25 00:11:53;;;;;;;6.80;5.17;;;7.80;99.90;;;;;;5055858;28;20217;-79
2022/09/25 00:14:20;;;;;;;7.87;5.30;;;7.80;99.90;;;;;;5056755;28;20790;-77
2022/09/25 00:16:47;;;;;;;8.57;6.10;;;7.80;99.90;;;;;;5056422;28;20729;-77
2022/09/25 00:22:05;;;;;;;9.90;6.83;;;7.70;99.90;;;;;;5048951;28;20273;-77
2022/09/25 00:24:34;;;;;;;9.57;6.37;;;7.70;99.90;;;;;;5040641;28;20229;-78
2022/09/25 00:27:01;;;;;;;9.53;6.50;;;7.70;99.90;;;;;;5055791;28;20283;-78
2022/09/25 00:29:29;;;;;;;7.53;6.07;;;7.70;99.90;;;;;;5056241;28;20259;-76
2022/09/25 00:31:56;;;;;;;8.47;5.77;;;7.70;99.90;;;;;;5055034;28;20241;-78
2022/09/25 00:34:23;;;;;;;9.90;6.17;;;7.70;99.90;;;;;;5055699;28;20652;-78
2022/09/25 00:36:50;;;;;;;8.23;5.53;;;7.70;99.90;;;;;;5056136;28;20224;-77
2022/09/25 00:39:17;;;;;;;9.83;6.13;;;7.70;99.90;;;;;;5056618;28;20214;-78
2022/09/25 00:41:46;;;;;;;8.30;6.00;;;7.70;99.90;;;;;;5055871;28;20266;-78
2022/09/25 00:44:59;;;;;;;8.77;6.27;;;7.70;99.90;;;;;;5056695;28;20208;-79
2022/09/25 00:47:55;;;;;;;6.93;5.67;;;7.70;99.90;;;;;;5011917;28;20828;-77
2022/09/25 00:50:29;;;;;;;7.60;5.10;;;7.70;99.90;;;;;;5022306;28;20211;-77
2022/09/25 00:53:02;;;;;;;5.77;4.87;;;7.70;99.90;;;;;;5055554;28;20296;-78
2022/09/25 00:55:30;;;;;;;7.10;5.03;;;7.70;99.90;;;;;;5054676;28;20206;-76
2022/09/25 00:58:00;;;;;;;7.53;4.97;;;7.70;99.90;;;;;;5053848;28;20654;-78
2022/09/25 01:00:27;;;;;;;6.60;4.90;;;7.60;99.90;;;;;;5055215;28;20270;-78
2022/09/25 01:02:56;;;;;;;9.27;5.00;;;7.60;99.90;;;;;;5055092;28;20565;-77
2022/09/25 01:05:26;;;;;;;6.60;5.03;;;7.60;99.90;;;;;;5053783;28;20236;-71
2022/09/25 01:07:54;;;;;;;9.83;6.07;;;7.60;99.90;;;;;;5052314;28;20210;-72
2022/09/25 01:10:21;;;;;;;12.00;8.20;;;7.60;99.90;;;;;;5048908;28;20288;-72
2022/09/25 01:12:50;;;;;;;10.83;7.27;;;7.60;99.90;;;;;;5052575;28;20212;-72
2022/09/25 01:15:20;;;;;;;13.73;7.73;;;7.60;99.90;;;;;;5052324;28;20297;-71
2022/09/25 01:18:00;;;;;;;17.27;7.60;;;7.60;99.90;;;;;;5052337;28;20205;-72
2022/09/25 01:20:43;;;;;;;11.27;6.60;;;7.50;99.90;;;;;;5052983;28;20281;-71
2022/09/25 01:23:20;;;;;;;8.87;5.90;;;7.40;99.90;;;;;;5052791;28;20196;-71
2022/09/25 01:26:00;;;;;;;9.20;6.13;;;7.40;99.90;;;;;;5051235;28;20265;-71
2022/09/25 01:28:50;;;;;;;7.10;5.20;;;7.40;99.90;;;;;;5052011;28;20201;-71
2022/09/25 01:31:24;;;;;;;8.67;5.67;;;7.40;99.90;;;;;;5039946;28;20723;-71
2022/09/25 01:33:57;;;;;;;10.13;6.30;;;7.40;99.90;;;;;;5052119;28;20232;-72
2022/09/25 01:36:29;;;;;;;10.10;6.67;;;7.30;99.90;;;;;;5051120;28;20207;-72
2022/09/25 01:39:03;;;;;;;10.30;6.40;;;7.40;99.90;;;;;;5052503;28;20249;-71
2022/09/25 01:41:39;;;;;;;9.30;6.63;;;7.30;99.90;;;;;;5052360;28;20272;-71
2022/09/25 01:44:12;;;;;;;7.70;5.60;;;7.40;99.90;;;;;;5052627;28;20221;-70
2022/09/25 01:46:43;;;;;;;8.27;5.87;;;7.30;99.90;;;;;;5051593;28;20239;-71
2022/09/25 01:49:17;;;;;;;11.80;5.57;;;7.30;99.90;;;;;;5052274;28;20193;-71
2022/09/25 01:51:48;;;;;;;7.27;5.60;;;7.30;99.90;;;;;;5052054;28;20200;-71
2022/09/25 01:54:19;;;;;;;7.73;5.90;;;7.30;99.90;;;;;;5052424;28;20659;-71
2022/09/25 01:56:52;;;;;;;8.00;5.70;;;7.40;99.90;;;;;;5050774;28;20250;-72
2022/09/25 01:59:27;;;;;;;6.00;5.03;;;7.40;99.90;;;;;;5052366;28;20604;-71
2022/09/25 02:01:56;;;;;;;6.93;5.00;;;7.30;99.90;;;;;;5051310;28;20280;-71
2022/09/25 02:04:28;;;;;;;7.97;5.60;;;7.30;99.90;;;;;;5052328;28;20752;-71
2022/09/25 02:06:58;;;;;;;8.17;5.70;;;7.30;99.90;;;;;;5050879;28;20408;-72
2022/09/25 02:09:31;;;;;;;7.47;5.53;;;7.20;99.90;;;;;;5052357;28;20699;-71
2022/09/25 02:12:05;;;;;;;8.30;5.70;;;7.30;99.90;;;;;;5052120;28;20665;-71
2022/09/25 02:14:37;;;;;;;8.57;5.50;;;7.30;99.90;;;;;;5051975;28;20225;-71
2022/09/25 02:17:09;;;;;;;8.13;5.70;;;7.30;99.90;;;;;;5032033;28;20186;-71
2022/09/25 02:22:24;;;;;;;7.93;5.90;;;7.20;99.90;;;;;;5031926;28;20309;-72
2022/09/25 02:24:57;;;;;;;7.50;6.00;;;7.20;99.90;;;;;;5037112;28;20308;-71
2022/09/25 02:27:26;;;;;;;9.47;6.87;;;7.10;99.90;;;;;;5049749;28;20753;-71
2022/09/25 02:29:55;;;;;;;10.00;5.97;;;7.10;99.90;;;;;;5051414;28;20590;-72
2022/09/25 02:32:28;;;;;;;7.50;5.47;;;7.10;99.90;;;;;;5051530;28;20343;-72
2022/09/25 02:34:56;;;;;;;7.60;5.40;;;7.00;99.90;;;;;;5051613;28;20197;-71
2022/09/25 02:37:23;;;;;;;8.33;5.70;;;7.10;99.90;;;;;;5050672;28;20216;-72
2022/09/25 02:39:54;;;;;;;7.47;6.30;;;7.10;99.90;;;;;;5050639;28;20205;-70
2022/09/25 02:42:32;;;;;;;7.23;5.73;;;7.10;99.90;;;;;;5051354;28;20205;-72
2022/09/25 02:45:12;;;;;;;8.13;5.90;;;7.10;99.90;;;;;;5051373;28;20225;-71
2022/09/25 02:47:50;;;;;;;7.27;5.47;;;7.10;99.90;;;;;;5052410;28;20336;-76
2022/09/25 02:50:23;;;;;;;11.07;5.80;;;7.10;99.90;;;;;;5052062;28;20280;-72
2022/09/25 02:52:58;;;;;;;7.17;5.30;;;7.10;99.90;;;;;;5051670;28;20288;-72
2022/09/25 02:55:34;;;;;;;6.00;5.00;;;7.10;99.90;;;;;;5051339;28;20280;-72
2022/09/25 02:58:08;;;;;;;8.57;6.03;;;7.10;99.90;;;;;;5048675;28;20284;-71
2022/09/25 03:00:38;;;;;;;8.73;5.87;;;7.10;99.90;;;;;;5051307;28;20552;-71
2022/09/25 03:03:10;;;;;;;7.40;5.77;;;7.10;99.90;;;;;;5051551;28;20281;-70
2022/09/25 03:05:38;;;;;;;8.23;5.67;;;7.10;99.90;;;;;;5050662;28;20216;-71
2022/09/25 03:10:50;;;;;;;7.73;5.77;;;7.10;99.90;;;;;;5051260;28;20189;-71
2022/09/25 03:13:19;;;;;;;10.20;5.83;;;7.10;99.90;;;;;;5051525;28;20209;-71
2022/09/25 03:15:52;;;;;;;9.70;6.00;;;7.10;99.90;;;;;;5053947;28;20208;-71
2022/09/25 03:18:19;;;;;;;8.10;5.83;;;7.10;99.90;;;;;;5055029;28;20280;-72
2022/09/25 03:20:46;;;;;;;7.37;5.57;;;7.10;99.90;;;;;;5054393;28;20211;-74
2022/09/25 03:23:14;;;;;;;7.43;5.83;;;7.10;99.90;;;;;;5054520;28;20291;-72
2022/09/25 03:25:40;;;;;;;6.23;5.40;;;7.10;99.90;;;;;;5053582;28;20317;-72
2022/09/25 03:28:12;;;;;;;7.93;5.40;;;7.10;99.90;;;;;;5054362;28;20221;-71
2022/09/25 03:30:39;;;;;;;7.80;5.60;;;7.10;99.90;;;;;;5054744;28;20273;-72
2022/09/25 03:33:09;;;;;;;10.00;5.50;;;7.10;99.90;;;;;;5053881;28;20233;-72
2022/09/25 03:35:36;;;;;;;6.47;5.60;;;7.10;99.90;;;;;;5054331;28;20213;-70
2022/09/25 03:38:03;;;;;;;7.07;5.20;;;7.10;99.90;;;;;;5054648;28;20293;-70
2022/09/25 03:40:30;;;;;;;7.00;5.37;;;7.10;99.90;;;;;;5054165;28;20300;-70
2022/09/25 03:42:57;;;;;;;9.10;5.80;;;7.10;99.90;;;;;;5053792;28;20587;-71
2022/09/25 03:45:24;;;;;;;6.93;5.60;;;7.10;99.90;;;;;;5054354;28;20624;-71
2022/09/25 03:47:51;;;;;;;8.13;5.40;;;7.10;99.90;;;;;;5054627;28;20268;-72
2022/09/25 03:50:19;;;;;;;9.80;5.40;;;7.10;99.90;;;;;;5054541;28;20292;-70
2022/09/25 03:52:46;;;;;;;6.40;5.20;;;7.10;99.90;;;;;;5053290;28;20292;-71
2022/09/25 03:55:12;;;;;;;6.43;5.13;;;7.10;99.90;;;;;;5053856;28;20237;-70
2022/09/25 03:57:40;;;;;;;8.00;5.50;;;7.10;99.90;;;;;;5054119;28;20212;-72
2022/09/25 04:00:08;;;;;;;6.40;5.20;;;7.10;99.90;;;;;;5053845;28;20228;-71
2022/09/25 04:02:35;;;;;;;12.13;5.83;;;7.10;99.90;;;;;;5053863;28;20210;-71
2022/09/25 04:05:02;;;;;;;8.07;6.10;;;7.10;99.90;;;;;;5054275;28;20232;-71
2022/09/25 04:07:31;;;;;;;6.80;5.57;;;7.00;99.90;;;;;;5053522;28;20264;-71
2022/09/25 04:09:58;;;;;;;8.87;5.60;;;7.10;99.90;;;;;;5052614;28;20288;-71
2022/09/25 04:12:25;;;;;;;9.33;5.77;;;7.00;99.90;;;;;;5053512;28;20300;-72
2022/09/25 04:14:53;;;;;;;9.70;6.37;;;7.00;99.90;;;;;;5053964;28;20253;-72
2022/09/25 04:17:21;;;;;;;9.33;5.30;;;7.00;99.90;;;;;;5053654;28;20201;-70
2022/09/25 04:19:48;;;;;;;9.93;5.53;;;7.00;99.90;;;;;;5053386;28;20707;-70
2022/09/25 04:22:14;;;;;;;10.30;6.00;;;7.00;99.90;;;;;;5053871;28;20740;-72
2022/09/25 04:24:48;;;;;;;8.87;5.90;;;7.10;99.90;;;;;;5053065;28;20221;-72
2022/09/25 04:27:16;;;;;;;9.53;6.13;;;7.10;99.90;;;;;;5052393;28;20214;-71
2022/09/25 04:29:42;;;;;;;6.93;5.60;;;7.10;99.90;;;;;;5053772;28;20306;-72
2022/09/25 04:34:54;;;;;;;7.37;5.07;;;7.20;99.90;;;;;;5053735;28;20185;-71
2022/09/25 04:37:22;;;;;;;7.60;5.87;;;7.20;99.90;;;;;;5053140;28;20621;-71
2022/09/25 04:39:50;;;;;;;8.27;5.27;;;7.20;99.90;;;;;;5053411;28;20209;-71
2022/09/25 04:42:17;;;;;;;8.37;6.17;;;7.30;99.90;;;;;;5051385;28;20292;-71
2022/09/25 04:44:44;;;;;;;6.93;5.37;;;7.30;99.90;;;;;;5053488;28;20295;-71
2022/09/25 04:47:11;;;;;;;6.80;5.23;;;7.20;99.90;;;;;;5053039;28;20229;-71
2022/09/25 04:49:38;;;;;;;8.10;5.27;;;7.20;99.90;;;;;;5052700;28;20236;-72
2022/09/25 04:52:05;;;;;;;7.30;5.10;;;7.30;99.90;;;;;;5051384;28;20215;-71
2022/09/25 04:54:32;;;;;;;14.03;9.50;;;7.30;99.90;;;;;;5053199;28;20202;-72
2022/09/25 04:57:01;;;;;;;8.53;5.90;;;7.30;99.90;;;;;;5053082;28;20293;-70
2022/09/25 04:59:28;;;;;;;7.67;6.30;;;7.30;99.90;;;;;;5052519;28;20236;-72
2022/09/25 05:01:55;;;;;;;9.67;5.80;;;7.40;99.90;;;;;;5051711;28;20205;-71
2022/09/25 05:04:22;;;;;;;13.73;8.53;;;7.40;99.90;;;;;;5052866;28;20660;-71
2022/09/25 05:06:50;;;;;;;9.50;5.70;;;7.40;99.90;;;;;;5053106;28;20241;-73
2022/09/25 05:09:17;;;;;;;7.47;5.57;;;7.50;99.90;;;;;;5052536;28;20304;-71
2022/09/25 05:11:46;;;;;;;7.70;5.20;;;7.50;99.90;;;;;;5051127;28;20204;-71
2022/09/25 05:14:14;;;;;;;7.73;5.63;;;7.60;99.90;;;;;;5052823;28;20627;-71
2022/09/25 05:16:41;;;;;;;6.57;5.03;;;7.60;99.90;;;;;;5052606;28;20564;-71
2022/09/25 05:19:08;;;;;;;8.17;5.90;;;7.60;99.90;;;;;;5052491;28;20700;-70
2022/09/25 05:21:35;;;;;;;8.13;5.37;;;7.60;99.90;;;;;;5051777;28;20259;-72
2022/09/25 05:24:02;;;;;;;8.47;5.57;;;7.70;99.90;;;;;;5052369;28;20240;-72
2022/09/25 05:26:29;;;;;;;7.10;5.43;;;7.70;99.90;;;;;;5052635;28;20240;-70
2022/09/25 05:28:56;;;;;;;7.70;5.47;;;7.80;99.90;;;;;;5052233;28;20222;-71
2022/09/25 05:31:24;;;;;;;10.53;7.47;;;7.80;99.90;;;;;;5051485;28;20211;-72
2022/09/25 05:33:52;;;;;;;9.63;5.70;;;7.90;99.90;;;;;;5051651;28;20332;-73
2022/09/25 05:36:19;;;;;;;7.33;5.27;;;7.90;99.90;;;;;;5051879;28;20304;-72
2022/09/25 05:38:47;;;;;;;6.97;5.13;;;8.00;99.90;;;;;;5052718;28;20355;-71
2022/09/25 05:41:14;;;;;;;6.60;4.93;;;8.10;99.90;;;;;;5051393;28;20599;-70
2022/09/25 05:43:42;;;;;;;7.57;5.50;;;8.10;99.90;;;;;;5052470;28;20727;-71
2022/09/25 05:46:10;;;;;;;11.17;6.80;;;8.20;99.90;;;;;;5051776;28;20300;-72
2022/09/25 05:48:38;;;;;;;9.67;6.27;;;8.20;99.90;;;;;;5052120;28;20724;-71
2022/09/25 05:51:06;;;;;;;8.17;6.00;;;8.30;99.90;;;;;;5050890;28;20308;-76
2022/09/25 05:53:33;;;;;;;9.70;5.70;;;8.40;99.90;;;;;;5052079;28;20303;-73
2022/09/25 05:56:02;;;;;;;9.10;5.20;;;8.50;99.90;;;;;;5052128;28;20643;-73
2022/09/25 05:58:30;;;;;;;6.37;5.07;;;8.50;99.90;;;;;;5050891;28;20293;-71
2022/09/25 06:01:00;;;;;;;7.53;5.43;;;8.60;99.90;;;;;;5052550;28;20288;-72
2022/09/25 06:03:28;;;;;;;7.43;5.10;;;8.70;99.90;;;;;;5052368;28;20651;-73
2022/09/25 06:05:57;;;;;;;7.47;5.40;;;8.70;99.90;;;;;;5052356;28;20637;-72
2022/09/25 06:08:24;;;;;;;10.07;5.80;;;8.80;99.90;;;;;;5051133;28;20311;-71
2022/09/25 06:10:54;;;;;;;8.67;5.43;;;8.90;99.90;;;;;;5052179;28;20209;-72
2022/09/25 06:13:22;;;;;;;7.23;5.47;;;8.90;99.90;;;;;;5052359;28;20586;-71
2022/09/25 06:15:51;;;;;;;8.23;5.43;;;9.00;99.90;;;;;;5051565;28;20213;-74
2022/09/25 06:18:19;;;;;;;6.63;5.13;;;9.10;99.90;;;;;;5051489;28;20197;-71
2022/09/25 06:20:46;;;;;;;8.00;5.50;;;9.20;99.90;;;;;;5051708;28;20729;-71
2022/09/25 06:23:14;;;;;;;8.57;5.23;;;9.30;99.90;;;;;;5051039;28;20615;-72
2022/09/25 06:25:41;;;;;;;7.17;5.00;;;9.40;99.90;;;;;;5051382;28;20213;-71
2022/09/25 06:28:09;;;;;;;9.73;5.57;;;9.50;99.90;;;;;;5051362;28;20308;-71
2022/09/25 06:30:37;;;;;;;9.17;5.00;;;9.50;99.90;;;;;;5051548;28;20311;-71
2022/09/25 06:33:08;;;;;;;9.27;5.20;;;9.60;99.90;;;;;;5050380;28;20336;-70
2022/09/25 06:35:35;;;;;;;7.60;5.23;;;9.70;99.90;;;;;;5031798;28;20194;-74
2022/09/25 06:38:03;;;;;;;7.23;5.50;;;9.80;99.90;;;;;;5031383;28;20293;-71
2022/09/25 06:40:32;;;;;;;7.47;5.57;;;9.90;99.90;;;;;;5032337;28;20202;-72
2022/09/25 06:43:01;;;;;;;9.03;5.00;;;10.00;99.90;;;;;;5037522;28;20201;-73
2022/09/25 06:45:31;;;;;;;9.13;5.27;;;10.10;99.90;;;;;;5051501;28;20741;-71
2022/09/25 06:48:01;;;;;;;7.40;5.10;;;10.20;99.90;;;;;;5052988;28;20216;-72
2022/09/25 06:50:37;;;;;;;7.63;5.40;;;10.30;99.90;;;;;;5054589;28;20261;-71
2022/09/25 06:53:04;;;;;;;8.50;5.00;;;10.40;99.90;;;;;;5049875;28;20232;-78
2022/09/25 06:55:33;;;;;;;8.33;5.10;;;10.50;99.90;;;;;;5054449;28;20678;-76
2022/09/25 06:58:00;;;;;;;10.13;5.37;;;10.60;99.90;;;;;;5055830;28;20304;-76
2022/09/25 07:00:27;;;;;;;8.70;5.57;;;10.60;99.90;;;;;;5055309;28;20206;-73
2022/09/25 07:05:38;;;;;;;8.77;5.43;;;10.80;99.90;;;;;;5053163;28;20745;-73
2022/09/25 07:08:05;;;;;;;9.70;6.00;;;10.90;99.90;;;;;;5054674;28;20683;-71
2022/09/25 07:10:33;;;;;;;7.87;5.40;;;11.00;99.90;;;;;;5053658;28;20240;-71
2022/09/25 07:13:00;;;;;;;17.23;8.60;;;11.10;99.90;;;;;;5050859;28;20206;-71
2022/09/25 07:15:27;;;;;;;11.00;6.67;;;11.10;99.90;;;;;;5054965;28;20525;-72
2022/09/25 07:17:54;;;;;;;9.67;5.97;;;11.30;99.90;;;;;;5054132;28;20632;-70
2022/09/25 07:20:21;;;;;;;6.90;4.70;;;11.40;99.90;;;;;;5054898;28;20284;-71
2022/09/25 07:22:48;;;;;;;8.17;4.60;;;11.40;99.90;;;;;;5054958;28;20205;-73
2022/09/25 07:25:15;;;;;;;7.27;4.03;;;11.50;99.90;;;;;;5054576;28;20296;-74
2022/09/25 07:27:43;;;;;;;5.37;4.20;;;11.60;99.90;;;;;;5054061;28;20661;-73
2022/09/25 07:30:11;;;;;;;8.17;4.27;;;11.70;99.90;;;;;;5054610;28;20224;-72
2022/09/25 07:32:38;;;;;;;5.60;4.20;;;11.70;99.90;;;;;;5054664;28;20241;-72
2022/09/25 07:35:05;;;;;;;6.13;3.83;;;11.90;99.90;;;;;;5054358;28;20233;-72
2022/09/25 07:37:32;;;;;;;4.83;3.70;;;11.90;99.90;;;;;;5052315;28;20284;-72
2022/09/25 07:39:59;;;;;;;6.60;4.13;;;12.00;99.90;;;;;;5054079;28;20209;-74
2022/09/25 07:42:25;;;;;;;6.20;3.80;;;12.10;99.90;;;;;;5054577;28;20237;-73
2022/09/25 07:44:54;;;;;;;7.73;5.17;;;12.10;99.90;;;;;;5054301;28;20685;-70
2022/09/25 07:47:21;;;;;;;7.07;4.80;;;12.20;99.90;;;;;;5053577;28;20312;-71
2022/09/25 07:49:47;;;;;;;8.07;5.03;;;12.20;99.90;;;;;;5054470;28;20278;-73
2022/09/25 07:52:14;;;;;;;7.47;4.43;;;12.30;99.90;;;;;;5053444;28;20209;-72
2022/09/25 07:54:41;;;;;;;5.53;3.67;;;12.30;99.90;;;;;;5054240;28;20221;-73
2022/09/25 07:57:08;;;;;;;6.10;3.40;;;12.40;99.90;;;;;;5053085;28;20696;-71
2022/09/25 07:59:35;;;;;;;7.03;4.13;;;12.40;99.90;;;;;;5052664;28;20643;-72
2022/09/25 08:02:04;;;;;;;7.70;3.80;;;12.50;99.90;;;;;;5056235;28;20244;-73
2022/09/25 08:04:31;;;;;;;7.20;3.63;;;12.60;99.90;;;;;;5055556;28;20711;-73
2022/09/25 08:06:58;;;;;;;6.27;4.53;;;12.60;99.90;;;;;;5053633;28;20284;-72
2022/09/25 08:09:25;;;;;;;4.73;3.53;;;12.70;99.90;;;;;;5052842;28;20224;-71
2022/09/25 08:11:52;;;;;;;5.77;3.47;;;12.70;99.90;;;;;;5053675;28;20300;-71
2022/09/25 08:14:20;;;;;;;6.10;3.37;;;12.80;99.90;;;;;;5053966;28;20685;-71
2022/09/25 08:16:47;;;;;;;4.20;3.30;;;12.80;99.90;;;;;;5053898;28;20201;-73
2022/09/25 08:19:17;;;;;;;5.73;3.37;;;12.90;99.90;;;;;;5053813;28;20212;-72
2022/09/25 08:21:44;;;;;;;6.23;3.53;;;13.00;99.90;;;;;;5051062;28;20297;-71
2022/09/25 08:24:11;;;;;;;7.17;3.70;;;13.00;99.90;;;;;;5053505;28;20731;-71
2022/09/25 08:26:38;;;;;;;5.03;3.10;;;13.10;99.90;;;;;;5052407;28;20292;-73
2022/09/25 08:29:05;;;;;;;6.10;3.57;;;13.10;99.90;;;;;;5052323;28;20605;-73
2022/09/25 08:31:33;;;;;;;4.43;3.10;;;13.20;99.90;;;;;;5052200;28;20205;-71
2022/09/25 08:34:00;;;;;;;7.63;4.90;;;13.30;99.90;;;;;;5052680;28;20233;-71
2022/09/25 08:36:28;;;;;;;4.73;3.20;;;13.30;99.90;;;;;;5053402;28;20312;-73
2022/09/25 08:38:58;;;;;;;3.90;3.00;;;13.40;99.90;;;;;;5053096;28;20207;-71
2022/09/25 08:41:27;;;;;;;5.70;2.70;;;13.50;99.90;;;;;;5052830;28;20205;-71
2022/09/25 08:44:00;;;;;;;4.03;2.93;;;13.60;99.90;;;;;;5052588;28;20209;-73
2022/09/25 08:49:25;;;;;;;3.80;2.80;;;13.60;99.90;;;;;;5051799;28;20220;-71
2022/09/25 08:51:59;;;;;;;4.03;2.87;;;13.70;99.90;;;;;;5051923;28;20220;-71
2022/09/25 08:54:28;;;;;;;7.70;5.13;;;13.80;99.90;;;;;;5052424;28;20274;-71
2022/09/25 08:56:58;;;;;;;3.23;2.63;;;13.90;99.90;;;;;;5051744;28;20205;-74
2022/09/25 08:59:28;;;;;;;3.57;2.50;;;14.00;99.90;;;;;;5053005;28;20236;-72
2022/09/25 09:01:59;;;;;;;4.47;2.50;;;14.00;99.90;;;;;;5052092;28;20633;-75
2022/09/25 09:04:30;;;;;;;5.43;2.50;;;14.10;99.90;;;;;;5050302;28;20281;-72
2022/09/25 09:07:05;;;;;;;3.90;2.40;;;14.10;99.90;;;;;;5048985;28;20193;-71
2022/09/25 09:09:38;;;;;;;3.63;2.40;;;14.20;99.90;;;;;;5050292;28;20322;-71
2022/09/25 09:12:10;;;;;;;3.27;2.30;;;14.20;99.90;;;;;;5049351;28;20695;-72
2022/09/25 09:14:43;;;;;;;4.63;2.30;;;14.30;99.90;;;;;;5043006;28;20293;-69
2022/09/25 09:17:17;;;;;;;2.33;2.13;;;14.30;99.90;;;;;;5052761;28;20193;-71
2022/09/25 09:19:48;;;;;;;3.93;2.40;;;14.40;99.90;;;;;;5052720;28;20196;-70
2022/09/25 09:22:22;;;;;;;3.53;2.60;;;14.40;99.90;;;;;;5051858;28;20207;-72
2022/09/25 09:25:01;;;;;;;4.53;2.50;;;14.50;99.90;;;;;;5051616;28;20229;-71
2022/09/25 09:27:52;;;;;;;3.70;2.33;;;14.50;99.90;;;;;;5050831;28;20288;-71
2022/09/25 09:30:22;;;;;;;6.20;2.43;;;14.60;99.90;;;;;;5052383;28;20281;-73
2022/09/25 09:33:13;;;;;;;4.63;2.60;;;14.60;99.90;;;;;;5051146;28;20782;-72
2022/09/25 09:35:47;;;;;;;7.53;4.80;;;14.70;99.90;;;;;;5050668;28;20228;-73
2022/09/25 09:38:27;;;;;;;3.03;2.30;;;14.60;99.90;;;;;;5052242;28;20335;-72
2022/09/25 09:41:11;;;;;;;2.50;2.03;;;14.70;99.90;;;;;;5051797;28;20225;-69
2022/09/25 09:43:52;;;;;;;4.67;2.27;;;14.70;99.90;;;;;;5051949;28;20558;-71
2022/09/25 09:46:28;;;;;;;3.07;1.97;;;14.70;99.90;;;;;;5049964;28;20633;-71
2022/09/25 09:49:06;;;;;;;5.13;2.27;;;14.70;99.90;;;;;;5051308;28;20220;-71
2022/09/25 09:51:37;;;;;;;2.10;1.90;;;14.70;99.90;;;;;;5051771;28;20243;-72
2022/09/25 09:54:12;;;;;;;5.00;1.90;;;14.80;99.90;;;;;;5065837;28;20285;-73
2022/09/25 09:56:42;;;;;;;3.00;2.10;;;14.80;99.90;;;;;;5063830;28;20291;-71
2022/09/25 09:59:16;;;;;;;2.60;2.10;;;14.90;99.90;;;;;;5049293;28;20284;-70
2022/09/25 10:01:45;;;;;;;2.17;1.90;;;15.00;99.90;;;;;;5051328;28;20571;-71
2022/09/25 10:04:17;;;;;;;3.43;2.13;;;15.10;99.90;;;;;;5051615;28;20301;-72
2022/09/25 10:06:48;;;;;;;3.57;2.00;;;15.20;99.90;;;;;;5048506;28;20699;-71
2022/09/25 10:09:17;;;;;;;3.50;2.67;;;15.20;99.90;;;;;;5052236;28;20309;-72
2022/09/25 10:11:46;;;;;;;3.07;1.70;;;15.30;99.90;;;;;;5052216;28;20304;-71
2022/09/25 10:14:19;;;;;;;3.37;2.00;;;15.40;99.90;;;;;;5051378;28;20203;-71
2022/09/25 10:16:48;;;;;;;2.97;2.30;;;15.50;99.90;;;;;;5051508;28;20191;-72
2022/09/25 10:19:18;;;;;;;2.63;2.20;;;15.50;99.90;;;;;;5050436;28;20240;-71
2022/09/25 10:21:49;;;;;;;3.10;2.10;;;15.60;99.90;;;;;;5050914;28;20211;-70
2022/09/25 10:24:51;;;;;;;2.20;1.97;;;15.60;99.90;;;;;;5048732;28;20293;-72
2022/09/25 10:27:31;;;;;;;4.50;2.00;;;15.60;99.90;;;;;;5040113;28;20640;-72
2022/09/25 10:30:14;;;;;;;3.17;1.90;;;15.50;99.90;;;;;;5050762;28;20214;-72
2022/09/25 10:32:48;;;;;;;2.63;1.83;;;15.60;99.90;;;;;;5051219;28;20239;-71
2022/09/25 10:35:18;;;;;;;3.83;2.07;;;15.70;99.90;;;;;;5050242;28;20314;-73
2022/09/25 10:37:51;;;;;;;3.10;2.27;;;15.70;99.90;;;;;;5050324;28;20344;-74
2022/09/25 10:40:32;;;;;;;2.50;2.00;;;15.80;99.90;;;;;;5051692;28;20196;-73
2022/09/25 10:43:14;;;;;;;5.67;2.63;;;15.70;99.90;;;;;;5051504;28;20554;-71
2022/09/25 10:45:42;;;;;;;2.40;2.00;;;15.70;99.90;;;;;;5051737;28;20246;-70
2022/09/25 10:51:16;;;;;;;2.17;1.80;;;15.80;99.90;;;;;;5051343;28;20186;-71
2022/09/25 10:53:44;;;;;;;1.97;1.70;;;15.90;99.90;;;;;;5051342;28;20182;-71
2022/09/25 10:56:17;;;;;;;3.13;1.80;;;15.90;99.90;;;;;;5051346;28;20243;-71
2022/09/25 10:58:47;;;;;;;3.23;2.13;;;16.00;99.90;;;;;;5050015;28;20218;-71
2022/09/25 11:01:16;;;;;;;2.20;1.90;;;16.10;99.90;;;;;;5049311;28;20201;-72
2022/09/25 11:03:53;;;;;;;3.90;2.10;;;16.10;99.90;;;;;;5051298;28;20677;-73
2022/09/25 11:06:24;;;;;;;2.50;1.97;;;16.20;99.90;;;;;;5051541;28;20238;-71
2022/09/25 11:09:02;;;;;;;2.77;2.03;;;16.30;99.90;;;;;;5051029;28;20229;-72
2022/09/25 11:11:30;;;;;;;2.70;2.20;;;16.30;99.90;;;;;;5049990;28;20204;-71
2022/09/25 11:14:02;;;;;;;2.53;1.90;;;16.40;99.90;;;;;;5051084;28;20207;-71
2022/09/25 11:16:47;;;;;;;3.60;2.20;;;16.40;99.90;;;;;;5045801;28;20220;-71
2022/09/25 11:19:16;;;;;;;5.70;2.00;;;16.40;99.90;;;;;;5035565;28;20196;-72
2022/09/25 11:21:49;;;;;;;2.90;1.83;;;16.40;99.90;;;;;;5041532;28;20246;-72
2022/09/25 11:24:22;;;;;;;2.50;1.90;;;16.50;99.90;;;;;;5047965;28;20323;-71
2022/09/25 11:26:58;;;;;;;2.53;1.80;;;16.50;99.90;;;;;;5049848;28;20211;-71
2022/09/25 11:29:32;;;;;;;4.00;1.70;;;16.50;99.90;;;;;;5050738;28;20223;-71
2022/09/25 11:32:06;;;;;;;2.50;1.97;;;16.50;99.90;;;;;;5051077;28;20230;-72
2022/09/25 11:34:47;;;;;;;2.10;1.90;;;16.40;99.90;;;;;;5051505;28;20674;-70
2022/09/25 11:37:22;;;;;;;4.33;2.37;;;16.40;99.90;;;;;;5055032;28;20283;-73
2022/09/25 11:42:47;;;;;;;3.07;1.97;;;16.30;99.90;;;;;;5054496;28;20192;-73
2022/09/25 11:45:20;;;;;;;3.60;2.20;;;16.20;99.90;;;;;;5054762;28;20226;-73
2022/09/25 11:47:52;;;;;;;4.63;2.00;;;16.20;99.90;;;;;;5054821;28;20282;-72
2022/09/25 11:50:22;;;;;;;3.17;2.03;;;16.20;99.90;;;;;;5054230;28;20213;-70
2022/09/25 11:53:00;;;;;;;4.33;2.20;;;16.20;99.90;;;;;;5054367;28;20299;-72
2022/09/25 11:55:44;;;;;;;2.73;2.20;;;16.20;99.90;;;;;;5056325;28;20228;-74
2022/09/25 11:58:45;;;;;;;3.47;2.50;;;16.20;99.90;;;;;;5070831;28;20227;-72
2022/09/25 12:01:24;;;;;;;4.07;2.00;;;16.30;99.90;;;;;;5074036;28;20203;-70
2022/09/25 12:04:26;;;;;;;2.20;1.93;;;16.30;99.90;;;;;;5074024;28;20621;-68
2022/09/25 12:07:15;;;;;;;2.30;2.10;;;16.30;99.90;;;;;;5071718;28;20199;-68
2022/09/25 12:10:05;;;;;;;3.67;2.57;;;16.30;99.90;;;;;;5073907;28;20591;-68
2022/09/25 12:12:40;;;;;;;4.90;2.30;;;16.30;99.90;;;;;;5073543;28;20606;-68
2022/09/25 12:15:17;;;;;;;2.93;2.20;;;16.40;99.90;;;;;;5069010;28;20195;-67
2022/09/25 12:17:53;;;;;;;3.77;2.63;;;16.40;99.90;;;;;;5053473;28;20217;-70
2022/09/25 12:20:28;;;;;;;3.30;2.20;;;16.40;99.90;;;;;;5053122;28;20183;-67
2022/09/25 12:23:08;;;;;;;2.70;1.90;;;16.50;99.90;;;;;;5054721;28;20211;-68
2022/09/25 12:25:50;;;;;;;4.20;2.20;;;16.50;99.90;;;;;;5052758;28;20196;-69
2022/09/25 12:28:27;;;;;;;3.43;2.57;;;16.50;99.90;;;;;;5053233;28;20191;-70
2022/09/25 12:31:03;;;;;;;3.20;2.33;;;16.50;99.90;;;;;;5054220;28;20695;-68
2022/09/25 12:33:37;;;;;;;3.90;2.10;;;16.50;99.90;;;;;;5052774;28;20323;-67
2022/09/25 12:36:09;;;;;;;4.27;2.40;;;16.50;99.90;;;;;;5053339;28;20194;-67
2022/09/25 12:38:43;;;;;;;3.33;2.30;;;16.50;99.90;;;;;;5072295;28;20599;-71
2022/09/25 12:41:16;;;;;;;2.80;2.40;;;16.50;99.90;;;;;;5066398;28;20222;-71
2022/09/25 12:43:47;;;;;;;2.73;2.10;;;16.50;99.90;;;;;;5049696;28;20321;-71
2022/09/25 12:46:22;;;;;;;4.00;2.00;;;16.60;99.90;;;;;;5052235;28;20290;-71
2022/09/25 12:48:52;;;;;;;3.00;2.23;;;16.60;99.90;;;;;;5049912;28;20714;-71
2022/09/25 12:51:24;;;;;;;2.60;2.37;;;16.60;99.90;;;;;;5051449;28;20286;-73
2022/09/25 12:53:57;;;;;;;2.57;2.07;;;16.60;99.90;;;;;;5052740;28;20216;-74
2022/09/25 12:56:29;;;;;;;4.67;2.50;;;16.60;99.90;;;;;;5052790;28;20544;-73
2022/09/25 12:59:04;;;;;;;2.63;2.20;;;16.70;99.90;;;;;;5053029;28;20281;-74
2022/09/25 13:01:38;;;;;;;3.73;2.60;;;16.60;99.90;;;;;;5050437;28;20201;-75
2022/09/25 13:04:32;;;;;;;4.20;2.30;;;16.60;99.90;;;;;;5052839;28;20222;-73
2022/09/25 13:07:08;;;;;;;4.37;2.20;;;16.60;99.90;;;;;;5051015;28;20305;-74
2022/09/25 13:09:41;;;;;;;4.23;2.10;;;16.60;99.90;;;;;;5043231;28;20273;-73
2022/09/25 13:12:16;;;;;;;9.30;4.17;;;16.60;99.90;;;;;;5052371;28;20203;-72
2022/09/25 13:14:51;;;;;;;7.33;4.73;;;16.60;99.90;;;;;;5052815;28;20193;-72
2022/09/25 13:17:19;;;;;;;4.53;3.43;;;16.60;99.90;;;;;;5053479;28;20713;-74
2022/09/25 13:19:46;;;;;;;2.73;2.40;;;16.50;99.90;;;;;;5052410;28;20291;-74
2022/09/25 13:22:19;;;;;;;3.30;2.40;;;16.50;99.90;;;;;;5051995;28;20601;-75
2022/09/25 13:24:49;;;;;;;2.87;2.20;;;16.50;99.90;;;;;;5052256;28;20204;-73
2022/09/25 13:27:21;;;;;;;3.50;2.50;;;16.50;99.90;;;;;;5052608;28;20199;-74
2022/09/25 13:29:54;;;;;;;3.03;2.50;;;16.50;99.90;;;;;;5052378;28;20212;-73
2022/09/25 13:32:27;;;;;;;5.70;2.70;;;16.50;99.90;;;;;;5049062;28;20260;-75
2022/09/25 13:34:57;;;;;;;6.37;2.83;;;16.40;99.90;;;;;;5051253;28;20208;-74